createdAt,value
2019-06-26T00:01:26.882Z,18.25
2019-06-26T00:06:31.518Z,18.35
2019-06-26T00:11:35.988Z,18.85
2019-06-26T00:16:40.624Z,20.30
2019-06-26T00:21:45.282Z,18.30
2019-06-26T00:26:49.851Z,17.40
2019-06-26T00:31:54.505Z,18.02
2019-06-26T00:36:59.141Z,19.67
2019-06-26T00:42:04.908Z,20.15
2019-06-26T00:47:09.622Z,22.10
2019-06-26T00:52:14.204Z,21.37
2019-06-26T00:57:18.819Z,21.90
2019-06-26T01:02:23.455Z,23.95
2019-06-26T01:07:28.071Z,19.05
2019-06-26T01:12:32.706Z,23.90
2019-06-26T01:17:37.380Z,22.07
2019-06-26T01:22:42.027Z,21.90
2019-06-26T01:27:46.592Z,20.12
2019-06-26T01:32:51.298Z,19.82
2019-06-26T01:37:55.981Z,19.30
2019-06-26T01:43:00.485Z,20.88
2019-06-26T01:48:05.056Z,19.48
2019-06-26T01:53:09.792Z,19.02
2019-06-26T01:58:14.409Z,19.12
2019-06-26T02:03:19.089Z,24.05
2019-06-26T02:08:23.649Z,21.02
2019-06-26T02:13:28.130Z,20.27
2019-06-26T02:18:36.885Z,24.65
2019-06-26T02:23:41.545Z,20.12
2019-06-26T02:28:46.084Z,20.65
2019-06-26T02:33:50.578Z,18.90
2019-06-26T02:38:55.244Z,22.30
2019-06-26T02:43:59.873Z,17.17
2019-06-26T02:49:04.504Z,21.95
2019-06-26T02:54:09.111Z,18.62
2019-06-26T02:59:13.780Z,17.82
2019-06-26T03:04:18.310Z,17.52
2019-06-26T03:09:23.071Z,17.73
2019-06-26T03:14:27.582Z,18.30
2019-06-26T03:19:32.131Z,26.37
2019-06-26T03:24:36.768Z,22.52
2019-06-26T03:29:41.452Z,20.32
2019-06-26T03:34:46.000Z,18.42
2019-06-26T03:39:50.568Z,16.60
2019-06-26T03:44:55.154Z,20.90
2019-06-26T03:49:59.743Z,19.80
2019-06-26T03:55:08.647Z,23.83
2019-06-26T04:00:13.892Z,25.32
2019-06-26T04:05:18.533Z,19.37
2019-06-26T04:10:23.171Z,16.42
2019-06-26T04:15:40.791Z,17.27
2019-06-26T04:20:34.275Z,17.02
2019-06-26T04:25:40.685Z,19.05
2019-06-26T04:30:45.282Z,23.40
2019-06-26T04:35:50.004Z,19.23
2019-06-26T04:40:54.802Z,16.70
2019-06-26T04:45:59.398Z,20.05
2019-06-26T04:51:03.965Z,18.12
2019-06-26T04:56:08.632Z,20.12
2019-06-26T05:01:13.331Z,18.57
2019-06-26T05:06:18.077Z,20.12
2019-06-26T05:11:22.699Z,24.40
2019-06-26T05:16:27.471Z,23.30
2019-06-26T05:21:32.099Z,23.95
2019-06-26T05:26:36.652Z,24.40
2019-06-26T05:31:41.265Z,21.70
2019-06-26T05:36:46.091Z,26.25
2019-06-26T05:41:50.748Z,29.32
2019-06-26T05:46:55.414Z,26.90
2019-06-26T05:52:02.075Z,26.60
2019-06-26T05:57:06.373Z,25.40
2019-06-26T06:02:11.068Z,24.45
2019-06-26T06:07:15.665Z,27.45
2019-06-26T06:12:21.412Z,31.00
2019-06-26T06:17:26.050Z,27.67
2019-06-26T06:22:30.650Z,21.97
2019-06-26T06:27:35.262Z,20.52
2019-06-26T06:32:39.883Z,25.90
2019-06-26T06:37:44.398Z,23.47
2019-06-26T06:42:48.977Z,19.70
2019-06-26T06:47:53.457Z,20.88
2019-06-26T06:52:58.141Z,28.83
2019-06-26T06:58:03.810Z,20.15
2019-06-26T07:03:08.375Z,20.30
2019-06-26T07:08:13.084Z,23.83
2019-06-26T07:13:17.704Z,32.00
2019-06-26T07:18:22.408Z,24.27
2019-06-26T07:23:27.105Z,22.67
2019-06-26T07:28:31.715Z,19.15
2019-06-26T07:33:37.308Z,19.57
2019-06-26T07:38:41.868Z,15.40
2019-06-26T07:43:46.519Z,17.32
2019-06-26T07:48:51.117Z,16.73
2019-06-26T07:53:55.685Z,25.52
2019-06-26T07:59:00.259Z,15.75
2019-06-26T08:04:04.995Z,15.68
2019-06-26T08:09:09.600Z,19.75
2019-06-26T08:14:14.151Z,21.57
2019-06-26T08:19:18.781Z,24.45
2019-06-26T08:24:23.367Z,21.77
2019-06-26T08:29:27.925Z,21.23
2019-06-26T08:34:32.393Z,22.40
2019-06-26T08:39:37.084Z,20.08
2019-06-26T08:44:43.137Z,33.20
2019-06-26T08:49:47.688Z,19.62
2019-06-26T08:54:52.312Z,24.85
2019-06-26T08:59:56.915Z,25.15
2019-06-26T09:05:01.459Z,22.35
2019-06-26T09:10:08.027Z,19.80
2019-06-26T09:15:13.109Z,19.40
2019-06-26T09:20:20.754Z,18.02
2019-06-26T09:25:25.428Z,18.02
2019-06-26T09:30:30.384Z,19.75
2019-06-26T09:35:35.123Z,19.52
2019-06-26T09:40:39.918Z,19.98
2019-06-26T09:45:45.641Z,16.35
2019-06-26T09:50:50.701Z,19.25
2019-06-26T09:55:55.371Z,26.45
2019-06-26T10:01:00.043Z,22.60
2019-06-26T10:06:04.637Z,19.05
2019-06-26T10:11:09.264Z,16.93
2019-06-26T10:16:13.945Z,15.08
2019-06-26T10:21:18.926Z,12.78
2019-06-26T10:26:23.600Z,14.63
2019-06-26T10:31:28.080Z,12.53
2019-06-26T10:36:32.797Z,15.98
2019-06-26T10:41:37.493Z,11.78
2019-06-26T10:46:42.127Z,13.93
2019-06-26T10:51:46.932Z,14.38
2019-06-26T10:56:51.547Z,14.30
2019-06-26T11:01:56.192Z,17.42
2019-06-26T11:07:00.891Z,15.58
2019-06-26T11:12:05.497Z,13.48
2019-06-26T11:17:10.120Z,17.95
2019-06-26T11:22:14.684Z,14.65
2019-06-26T11:27:19.223Z,14.43
2019-06-26T11:32:23.951Z,14.80
2019-06-26T11:37:28.582Z,11.97
2019-06-26T11:42:33.330Z,14.30
2019-06-26T11:47:38.268Z,12.47
2019-06-26T11:52:42.927Z,14.63
2019-06-26T11:57:47.971Z,13.85
2019-06-26T12:02:52.591Z,14.38
2019-06-26T12:07:57.264Z,11.83
2019-06-26T12:13:04.265Z,11.28
2019-06-26T12:18:08.134Z,11.90
2019-06-26T12:23:12.746Z,17.62
2019-06-26T12:28:17.500Z,12.65
2019-06-26T12:33:22.105Z,12.60
2019-06-26T12:38:26.693Z,13.28
2019-06-26T12:43:31.388Z,13.08
2019-06-26T12:48:37.484Z,11.08
2019-06-26T12:53:42.042Z,13.50
2019-06-26T12:58:46.678Z,16.55
2019-06-26T13:03:51.497Z,11.30
2019-06-26T13:08:56.231Z,11.65
2019-06-26T13:14:03.027Z,10.58
2019-06-26T13:19:07.117Z,11.65
2019-06-26T13:24:11.713Z,13.83
2019-06-26T13:29:17.952Z,10.48
2019-06-26T13:34:23.581Z,9.80
2019-06-26T13:39:28.210Z,14.60
2019-06-26T13:44:32.873Z,14.85
2019-06-26T13:49:37.427Z,12.50
2019-06-26T13:54:41.993Z,10.20
2019-06-26T13:59:46.671Z,14.93
2019-06-26T14:04:51.198Z,13.85
2019-06-26T14:09:55.765Z,8.63
2019-06-26T14:15:00.260Z,11.97
2019-06-26T14:20:06.481Z,11.43
2019-06-26T14:25:11.308Z,25.62
2019-06-26T14:30:16.291Z,13.78
2019-06-26T14:35:21.018Z,11.35
2019-06-26T14:40:25.654Z,9.98
2019-06-26T14:45:30.218Z,11.80
2019-06-26T14:50:34.866Z,17.73
2019-06-26T14:55:39.606Z,12.53
2019-06-26T15:00:44.236Z,11.05
2019-06-26T15:05:48.898Z,12.58
2019-06-26T15:10:53.461Z,12.25
2019-06-26T15:15:58.172Z,13.35
2019-06-26T15:21:02.821Z,11.38
2019-06-26T15:26:07.322Z,10.23
2019-06-26T15:31:12.036Z,13.30
2019-06-26T15:36:16.656Z,11.63
2019-06-26T15:41:21.452Z,10.10
2019-06-26T15:46:26.065Z,12.03
2019-06-26T15:51:30.693Z,14.07
2019-06-26T15:56:35.393Z,13.15
2019-06-26T16:01:39.878Z,19.48
2019-06-26T16:06:44.431Z,11.68
2019-06-26T16:11:49.014Z,16.25
2019-06-26T16:16:55.341Z,14.35
2019-06-26T16:21:59.877Z,15.15
2019-06-26T16:27:08.507Z,13.18
2019-06-26T16:32:14.021Z,15.32
2019-06-26T16:37:18.647Z,15.65
2019-06-26T16:42:23.137Z,14.28
2019-06-26T16:47:27.910Z,13.08
2019-06-26T16:52:47.837Z,14.75
2019-06-26T16:57:38.869Z,13.25
2019-06-26T17:02:43.507Z,15.03
2019-06-26T17:07:48.207Z,14.70
2019-06-26T17:12:52.779Z,17.87
2019-06-26T17:17:57.403Z,17.10
2019-06-26T17:23:06.013Z,12.88
2019-06-26T17:28:09.859Z,14.50
2019-06-26T17:33:14.432Z,13.83
2019-06-26T17:38:19.120Z,15.08
2019-06-26T17:43:23.711Z,15.63
2019-06-26T17:48:28.380Z,18.40
2019-06-26T17:53:32.965Z,17.48
2019-06-26T17:58:37.584Z,15.90
2019-06-26T18:03:42.176Z,15.78
2019-06-26T18:08:46.752Z,21.17
2019-06-26T18:13:51.266Z,18.62
2019-06-26T18:18:55.876Z,17.07
2019-06-26T18:24:00.381Z,18.27
2019-06-26T18:29:05.145Z,16.90
2019-06-26T18:34:09.842Z,17.05
2019-06-26T18:39:14.462Z,19.05
2019-06-26T18:44:18.936Z,17.37
2019-06-26T18:49:23.514Z,17.05
2019-06-26T18:54:28.062Z,18.55
2019-06-26T18:59:32.689Z,17.30
2019-06-26T19:04:37.385Z,19.37
2019-06-26T19:09:42.158Z,21.45
2019-06-26T19:14:46.954Z,19.55
2019-06-26T19:19:52.678Z,23.12
2019-06-26T19:24:57.453Z,19.25
2019-06-26T19:30:04.815Z,21.17
2019-06-26T19:35:19.227Z,14.95
2019-06-26T19:40:17.778Z,15.80
2019-06-26T19:45:22.874Z,20.00
2019-06-26T19:50:27.597Z,16.80
2019-06-26T19:55:32.361Z,17.48
2019-06-26T20:00:37.013Z,15.18
2019-06-26T20:05:41.858Z,16.07
2019-06-26T20:10:47.183Z,14.78
2019-06-26T20:15:52.377Z,21.80
2019-06-26T20:20:58.278Z,14.63
2019-06-26T20:26:04.172Z,17.27
2019-06-26T20:31:19.532Z,15.95
2019-06-26T20:36:27.789Z,14.87
2019-06-26T20:41:33.071Z,15.63
2019-06-26T20:59:18.989Z,17.62
2019-06-26T21:04:23.990Z,16.10
2019-06-26T21:09:28.788Z,16.40
2019-06-26T21:14:33.903Z,19.48
2019-06-26T21:19:38.717Z,19.15
2019-06-26T21:24:43.310Z,16.57
2019-06-26T21:29:47.993Z,20.00
2019-06-26T21:34:57.609Z,18.50
2019-06-26T21:40:02.205Z,23.12
2019-06-26T21:45:07.406Z,21.73
2019-06-26T21:50:13.245Z,16.62
2019-06-26T21:55:33.226Z,15.85
2019-06-26T22:00:42.516Z,19.80
2019-06-26T22:06:05.606Z,25.90
2019-06-26T22:11:11.794Z,25.02
2019-06-26T22:16:16.581Z,21.75
2019-06-26T22:21:21.208Z,25.08
2019-06-26T22:26:25.842Z,19.52
2019-06-26T22:31:30.640Z,18.67
2019-06-26T22:36:35.281Z,22.48
2019-06-26T22:41:39.988Z,19.42
2019-06-26T22:46:44.584Z,25.55
2019-06-26T22:51:49.603Z,19.87
2019-06-26T22:56:54.159Z,23.67
2019-06-26T23:01:58.812Z,22.25
2019-06-26T23:07:03.403Z,24.23
2019-06-26T23:12:08.063Z,21.40
2019-06-26T23:17:13.776Z,22.10
2019-06-26T23:22:18.355Z,22.05
2019-06-26T23:27:22.985Z,19.67
2019-06-26T23:32:27.543Z,20.97
2019-06-26T23:37:32.154Z,20.08
2019-06-26T23:42:36.874Z,21.30
2019-06-26T23:47:41.471Z,21.33
2019-06-26T23:52:46.043Z,20.77
2019-06-26T23:57:58.885Z,16.02
